sensor_id;sensor_type;location;lat;lon;timestamp;pressure;altitude;pressure_sealevel;temperature;humidity
21276;BME280;36472;52.170;20.884;2022-10-16T00:00:10;100579.69;;;14.18;93.17
21276;BME280;36472;52.170;20.884;2022-10-16T00:02:59;100582.09;;;14.33;91.32
21276;BME280;36472;52.170;20.884;2022-10-16T00:05:28;100582.94;;;14.45;90.72
21276;BME280;36472;52.170;20.884;2022-10-16T00:07:57;100586.19;;;14.48;91.50
21276;BME280;36472;52.170;20.884;2022-10-16T00:10:27;100574.19;;;14.44;92.06
21276;BME280;36472;52.170;20.884;2022-10-16T00:12:56;100575.25;;;14.53;92.19
21276;BME280;36472;52.170;20.884;2022-10-16T00:15:24;100584.03;;;14.31;93.31
21276;BME280;36472;52.170;20.884;2022-10-16T00:17:53;100573.69;;;14.28;93.23
21276;BME280;36472;52.170;20.884;2022-10-16T00:20:22;100578.50;;;14.22;90.85
21276;BME280;36472;52.170;20.884;2022-10-16T00:23:09;100583.56;;;14.37;89.09
21276;BME280;36472;52.170;20.884;2022-10-16T00:25:39;100587.41;;;14.44;88.91
21276;BME280;36472;52.170;20.884;2022-10-16T00:28:08;100576.69;;;14.46;87.95
21276;BME280;36472;52.170;20.884;2022-10-16T00:30:38;100581.38;;;14.53;86.28
21276;BME280;36472;52.170;20.884;2022-10-16T00:33:07;100588.88;;;14.59;88.10
21276;BME280;36472;52.170;20.884;2022-10-16T00:35:35;100581.00;;;14.58;86.55
21276;BME280;36472;52.170;20.884;2022-10-16T00:38:04;100588.94;;;14.58;85.59
21276;BME280;36472;52.170;20.884;2022-10-16T00:40:33;100595.84;;;14.61;86.68
21276;BME280;36472;52.170;20.884;2022-10-16T00:43:07;100596.16;;;14.56;88.37
21276;BME280;36472;52.170;20.884;2022-10-16T00:45:37;100598.69;;;14.46;85.88
21276;BME280;36472;52.170;20.884;2022-10-16T00:48:13;100600.03;;;14.52;85.68
21276;BME280;36472;52.170;20.884;2022-10-16T00:50:42;100603.28;;;14.55;86.15
21276;BME280;36472;52.170;20.884;2022-10-16T00:53:11;100604.25;;;14.66;87.49
21276;BME280;36472;52.170;20.884;2022-10-16T00:55:40;100601.34;;;14.57;88.42
21276;BME280;36472;52.170;20.884;2022-10-16T00:58:11;100600.88;;;14.52;89.60
21276;BME280;36472;52.170;20.884;2022-10-16T01:00:40;100599.66;;;14.45;90.73
21276;BME280;36472;52.170;20.884;2022-10-16T01:03:26;100594.63;;;14.42;90.73
21276;BME280;36472;52.170;20.884;2022-10-16T01:06:07;100594.25;;;14.35;89.12
21276;BME280;36472;52.170;20.884;2022-10-16T01:08:58;100600.38;;;14.36;89.93
21276;BME280;36472;52.170;20.884;2022-10-16T01:11:34;100592.44;;;14.25;90.23
21276;BME280;36472;52.170;20.884;2022-10-16T01:14:14;100597.97;;;14.33;89.91
21276;BME280;36472;52.170;20.884;2022-10-16T01:16:53;100601.59;;;14.32;88.79
21276;BME280;36472;52.170;20.884;2022-10-16T01:19:44;100592.94;;;14.30;87.89
21276;BME280;36472;52.170;20.884;2022-10-16T01:22:19;100603.25;;;14.33;87.56
21276;BME280;36472;52.170;20.884;2022-10-16T01:24:50;100612.75;;;14.35;87.29
21276;BME280;36472;52.170;20.884;2022-10-16T01:27:26;100618.41;;;14.42;85.21
21276;BME280;36472;52.170;20.884;2022-10-16T01:30:05;100616.72;;;14.52;86.67
21276;BME280;36472;52.170;20.884;2022-10-16T01:32:40;100622.38;;;14.48;87.00
21276;BME280;36472;52.170;20.884;2022-10-16T01:35:18;100620.13;;;14.66;88.32
21276;BME280;36472;52.170;20.884;2022-10-16T01:37:53;100635.00;;;14.44;91.05
21276;BME280;36472;52.170;20.884;2022-10-16T01:40:26;100632.81;;;14.27;92.77
21276;BME280;36472;52.170;20.884;2022-10-16T01:43:03;100631.84;;;14.28;89.46
21276;BME280;36472;52.170;20.884;2022-10-16T01:45:34;100629.47;;;14.25;91.12
21276;BME280;36472;52.170;20.884;2022-10-16T01:48:06;100633.06;;;14.24;92.50
21276;BME280;36472;52.170;20.884;2022-10-16T01:50:41;100618.41;;;14.19;92.02
21276;BME280;36472;52.170;20.884;2022-10-16T01:53:13;100617.66;;;14.17;89.78
21276;BME280;36472;52.170;20.884;2022-10-16T01:55:47;100622.22;;;14.15;90.78
21276;BME280;36472;52.170;20.884;2022-10-16T01:58:18;100618.75;;;14.15;91.18
21276;BME280;36472;52.170;20.884;2022-10-16T02:00:48;100617.41;;;14.09;90.94
21276;BME280;36472;52.170;20.884;2022-10-16T02:03:20;100610.22;;;14.11;90.27
21276;BME280;36472;52.170;20.884;2022-10-16T02:05:53;100614.53;;;14.12;91.03
21276;BME280;36472;52.170;20.884;2022-10-16T02:08:25;100618.38;;;14.08;90.32
21276;BME280;36472;52.170;20.884;2022-10-16T02:10:56;100624.72;;;14.06;90.04
21276;BME280;36472;52.170;20.884;2022-10-16T02:13:32;100620.41;;;14.05;90.46
21276;BME280;36472;52.170;20.884;2022-10-16T02:16:01;100614.41;;;14.02;91.18
21276;BME280;36472;52.170;20.884;2022-10-16T02:18:30;100614.53;;;14.01;91.41
21276;BME280;36472;52.170;20.884;2022-10-16T02:21:07;100617.03;;;14.02;91.36
21276;BME280;36472;52.170;20.884;2022-10-16T02:23:50;100613.81;;;13.99;92.47
21276;BME280;36472;52.170;20.884;2022-10-16T02:26:28;100604.41;;;13.95;93.03
21276;BME280;36472;52.170;20.884;2022-10-16T02:29:02;100607.66;;;13.87;93.95
21276;BME280;36472;52.170;20.884;2022-10-16T02:31:39;100607.75;;;13.86;94.29
21276;BME280;36472;52.170;20.884;2022-10-16T02:34:12;100607.25;;;13.80;93.75
21276;BME280;36472;52.170;20.884;2022-10-16T02:36:42;100611.06;;;13.76;93.07
21276;BME280;36472;52.170;20.884;2022-10-16T02:39:13;100615.63;;;13.74;93.62
21276;BME280;36472;52.170;20.884;2022-10-16T02:41:43;100627.91;;;13.75;93.97
21276;BME280;36472;52.170;20.884;2022-10-16T02:44:13;100622.00;;;13.72;95.39
21276;BME280;36472;52.170;20.884;2022-10-16T02:46:41;100625.47;;;13.72;94.44
21276;BME280;36472;52.170;20.884;2022-10-16T02:49:10;100625.59;;;13.71;94.83
21276;BME280;36472;52.170;20.884;2022-10-16T02:51:39;100631.22;;;13.66;93.30
21276;BME280;36472;52.170;20.884;2022-10-16T02:54:07;100632.06;;;13.67;93.11
21276;BME280;36472;52.170;20.884;2022-10-16T02:56:36;100626.53;;;13.70;92.41
21276;BME280;36472;52.170;20.884;2022-10-16T02:59:05;100637.97;;;13.70;92.05
21276;BME280;36472;52.170;20.884;2022-10-16T03:01:35;100626.53;;;13.70;91.64
21276;BME280;36472;52.170;20.884;2022-10-16T03:04:04;100640.34;;;13.73;92.82
21276;BME280;36472;52.170;20.884;2022-10-16T03:06:32;100632.91;;;13.67;94.50
21276;BME280;36472;52.170;20.884;2022-10-16T03:09:01;100642.50;;;13.68;95.42
21276;BME280;36472;52.170;20.884;2022-10-16T03:11:30;100639.25;;;13.64;93.62
21276;BME280;36472;52.170;20.884;2022-10-16T03:13:58;100646.13;;;13.67;92.17
21276;BME280;36472;52.170;20.884;2022-10-16T03:16:27;100642.50;;;13.68;93.03
21276;BME280;36472;52.170;20.884;2022-10-16T03:18:57;100643.47;;;13.67;94.50
21276;BME280;36472;52.170;20.884;2022-10-16T03:21:26;100643.69;;;13.64;93.90
21276;BME280;36472;52.170;20.884;2022-10-16T03:23:55;100642.25;;;13.60;93.97
21276;BME280;36472;52.170;20.884;2022-10-16T03:26:23;100647.53;;;13.60;93.88
21276;BME280;36472;52.170;20.884;2022-10-16T03:28:52;100649.31;;;13.59;93.96
21276;BME280;36472;52.170;20.884;2022-10-16T03:31:21;100658.09;;;13.60;92.27
21276;BME280;36472;52.170;20.884;2022-10-16T03:33:50;100650.91;;;13.62;93.99
21276;BME280;36472;52.170;20.884;2022-10-16T03:36:20;100652.81;;;13.60;92.29
21276;BME280;36472;52.170;20.884;2022-10-16T03:38:48;100652.56;;;13.63;93.22
21276;BME280;36472;52.170;20.884;2022-10-16T03:41:17;100654.59;;;13.59;93.86
21276;BME280;36472;52.170;20.884;2022-10-16T03:43:46;100662.63;;;13.58;93.83
21276;BME280;36472;52.170;20.884;2022-10-16T03:46:14;100667.53;;;13.51;92.23
21276;BME280;36472;52.170;20.884;2022-10-16T03:48:43;100671.00;;;13.52;92.58
21276;BME280;36472;52.170;20.884;2022-10-16T03:51:12;100667.03;;;13.46;94.50
21276;BME280;36472;52.170;20.884;2022-10-16T03:53:42;100663.38;;;13.36;93.48
21276;BME280;36472;52.170;20.884;2022-10-16T03:56:11;100664.63;;;13.30;94.13
21276;BME280;36472;52.170;20.884;2022-10-16T03:58:39;100653.66;;;13.23;94.56
21276;BME280;36472;52.170;20.884;2022-10-16T04:01:08;100666.22;;;13.20;94.88
21276;BME280;36472;52.170;20.884;2022-10-16T04:03:37;100673.31;;;13.19;94.78
21276;BME280;36472;52.170;20.884;2022-10-16T04:06:05;100669.75;;;13.20;94.65
21276;BME280;36472;52.170;20.884;2022-10-16T04:08:34;100668.03;;;13.19;95.56
21276;BME280;36472;52.170;20.884;2022-10-16T04:11:05;100661.94;;;13.19;95.82
21276;BME280;36472;52.170;20.884;2022-10-16T04:13:34;100662.25;;;13.14;95.39
21276;BME280;36472;52.170;20.884;2022-10-16T04:16:03;100662.66;;;13.21;95.46
21276;BME280;36472;52.170;20.884;2022-10-16T04:18:32;100663.59;;;13.20;94.75
21276;BME280;36472;52.170;20.884;2022-10-16T04:21:03;100675.38;;;13.27;94.39
21276;BME280;36472;52.170;20.884;2022-10-16T04:23:32;100672.88;;;13.25;94.84
21276;BME280;36472;52.170;20.884;2022-10-16T04:26:01;100692.81;;;13.29;94.92
21276;BME280;36472;52.170;20.884;2022-10-16T04:28:31;100695.56;;;13.28;95.11
21276;BME280;36472;52.170;20.884;2022-10-16T04:31:03;100685.22;;;13.25;94.48
21276;BME280;36472;52.170;20.884;2022-10-16T04:33:32;100684.38;;;13.24;95.25
21276;BME280;36472;52.170;20.884;2022-10-16T04:36:03;100684.72;;;13.20;95.64
21276;BME280;36472;52.170;20.884;2022-10-16T04:38:32;100686.09;;;13.13;96.10
21276;BME280;36472;52.170;20.884;2022-10-16T04:41:01;100688.44;;;13.04;96.14
21276;BME280;36472;52.170;20.884;2022-10-16T04:43:31;100691.28;;;13.01;96.11
21276;BME280;36472;52.170;20.884;2022-10-16T04:46:00;100692.47;;;12.97;96.74
21276;BME280;36472;52.170;20.884;2022-10-16T04:48:29;100691.44;;;12.87;96.70
21276;BME280;36472;52.170;20.884;2022-10-16T04:50:57;100700.28;;;12.86;96.57
21276;BME280;36472;52.170;20.884;2022-10-16T04:53:26;100693.44;;;12.83;97.09
21276;BME280;36472;52.170;20.884;2022-10-16T04:55:55;100694.72;;;12.78;96.82
21276;BME280;36472;52.170;20.884;2022-10-16T04:58:24;100697.78;;;12.71;97.52
21276;BME280;36472;52.170;20.884;2022-10-16T05:00:54;100698.09;;;12.67;97.24
21276;BME280;36472;52.170;20.884;2022-10-16T05:03:23;100700.53;;;12.70;97.57
21276;BME280;36472;52.170;20.884;2022-10-16T05:05:52;100703.47;;;12.65;97.68
21276;BME280;36472;52.170;20.884;2022-10-16T05:08:20;100711.28;;;12.67;97.36
21276;BME280;36472;52.170;20.884;2022-10-16T05:10:49;100713.81;;;12.68;97.65
21276;BME280;36472;52.170;20.884;2022-10-16T05:13:18;100716.13;;;12.60;98.35
21276;BME280;36472;52.170;20.884;2022-10-16T05:15:47;100723.75;;;12.52;98.78
21276;BME280;36472;52.170;20.884;2022-10-16T05:18:17;100722.44;;;12.45;99.16
21276;BME280;36472;52.170;20.884;2022-10-16T05:20:46;100721.59;;;12.44;98.91
21276;BME280;36472;52.170;20.884;2022-10-16T05:23:15;100721.50;;;12.46;99.34
21276;BME280;36472;52.170;20.884;2022-10-16T05:25:52;100712.97;;;12.42;99.52
21276;BME280;36472;52.170;20.884;2022-10-16T05:28:21;100718.44;;;12.39;99.45
21276;BME280;36472;52.170;20.884;2022-10-16T05:30:50;100712.34;;;12.39;99.63
21276;BME280;36472;52.170;20.884;2022-10-16T05:33:23;100716.75;;;12.38;99.86
21276;BME280;36472;52.170;20.884;2022-10-16T05:35:52;100712.94;;;12.29;100.00
21276;BME280;36472;52.170;20.884;2022-10-16T05:38:21;100710.09;;;12.32;100.00
21276;BME280;36472;52.170;20.884;2022-10-16T05:40:53;100716.63;;;12.40;99.96
21276;BME280;36472;52.170;20.884;2022-10-16T05:43:22;100711.91;;;12.45;100.00
21276;BME280;36472;52.170;20.884;2022-10-16T05:45:55;100723.75;;;12.52;99.51
21276;BME280;36472;52.170;20.884;2022-10-16T05:48:26;100723.06;;;12.48;100.00
21276;BME280;36472;52.170;20.884;2022-10-16T05:50:58;100728.88;;;12.53;99.82
21276;BME280;36472;52.170;20.884;2022-10-16T05:53:28;100731.75;;;12.50;99.75
21276;BME280;36472;52.170;20.884;2022-10-16T05:55:58;100737.66;;;12.54;99.59
21276;BME280;36472;52.170;20.884;2022-10-16T05:58:31;100729.22;;;12.49;99.09
21276;BME280;36472;52.170;20.884;2022-10-16T06:01:03;100742.72;;;12.57;99.41
21276;BME280;36472;52.170;20.884;2022-10-16T06:03:34;100744.00;;;12.64;98.97
21276;BME280;36472;52.170;20.884;2022-10-16T06:06:09;100738.38;;;12.56;99.34
21276;BME280;36472;52.170;20.884;2022-10-16T06:08:39;100743.13;;;12.64;99.05
21276;BME280;36472;52.170;20.884;2022-10-16T06:11:12;100747.25;;;12.68;98.83
21276;BME280;36472;52.170;20.884;2022-10-16T06:13:41;100754.09;;;12.83;98.16
21276;BME280;36472;52.170;20.884;2022-10-16T06:16:11;100757.16;;;12.90;97.32
21276;BME280;36472;52.170;20.884;2022-10-16T06:18:41;100760.00;;;13.00;96.90
21276;BME280;36472;52.170;20.884;2022-10-16T06:21:14;100761.03;;;13.10;96.22
21276;BME280;36472;52.170;20.884;2022-10-16T06:23:45;100754.72;;;13.13;95.37
21276;BME280;36472;52.170;20.884;2022-10-16T06:26:16;100752.28;;;13.22;94.98
21276;BME280;36472;52.170;20.884;2022-10-16T06:28:46;100760.19;;;13.35;94.73
21276;BME280;36472;52.170;20.884;2022-10-16T06:31:16;100764.81;;;13.44;93.48
21276;BME280;36472;52.170;20.884;2022-10-16T06:33:51;100765.09;;;13.53;92.85
21276;BME280;36472;52.170;20.884;2022-10-16T06:36:20;100763.25;;;13.66;92.35
21276;BME280;36472;52.170;20.884;2022-10-16T06:38:49;100762.22;;;13.69;91.70
21276;BME280;36472;52.170;20.884;2022-10-16T06:41:21;100769.34;;;13.79;92.06
21276;BME280;36472;52.170;20.884;2022-10-16T06:43:51;100778.19;;;13.91;91.54
21276;BME280;36472;52.170;20.884;2022-10-16T06:46:23;100777.97;;;13.94;90.76
21276;BME280;36472;52.170;20.884;2022-10-16T06:48:53;100780.53;;;13.83;90.06
21276;BME280;36472;52.170;20.884;2022-10-16T06:51:24;100777.88;;;13.83;90.67
21276;BME280;36472;52.170;20.884;2022-10-16T06:53:55;100767.06;;;13.99;90.77
21276;BME280;36472;52.170;20.884;2022-10-16T06:56:32;100780.91;;;14.14;89.93
21276;BME280;36472;52.170;20.884;2022-10-16T06:59:02;100785.91;;;14.30;89.19
21276;BME280;36472;52.170;20.884;2022-10-16T07:01:31;100795.91;;;14.37;88.46
21276;BME280;36472;52.170;20.884;2022-10-16T07:04:02;100794.22;;;14.36;89.00
21276;BME280;36472;52.170;20.884;2022-10-16T07:06:33;100792.53;;;14.35;89.03
21276;BME280;36472;52.170;20.884;2022-10-16T07:09:05;100794.06;;;14.27;88.46
21276;BME280;36472;52.170;20.884;2022-10-16T07:11:36;100794.19;;;14.25;89.73
21276;BME280;36472;52.170;20.884;2022-10-16T07:14:05;100794.13;;;14.14;89.87
21276;BME280;36472;52.170;20.884;2022-10-16T07:16:37;100800.78;;;14.19;89.82
21276;BME280;36472;52.170;20.884;2022-10-16T07:19:08;100795.72;;;14.16;90.50
21276;BME280;36472;52.170;20.884;2022-10-16T07:21:39;100798.84;;;14.21;91.16
21276;BME280;36472;52.170;20.884;2022-10-16T07:24:13;100801.03;;;14.28;91.27
21276;BME280;36472;52.170;20.884;2022-10-16T07:26:44;100789.06;;;14.35;90.81
21276;BME280;36472;52.170;20.884;2022-10-16T07:29:15;100771.16;;;14.38;91.42
21276;BME280;36472;52.170;20.884;2022-10-16T07:31:45;100768.53;;;14.38;91.47
21276;BME280;36472;52.170;20.884;2022-10-16T07:34:18;100757.31;;;14.59;90.28
21276;BME280;36472;52.170;20.884;2022-10-16T07:36:49;100775.97;;;14.80;88.97
21276;BME280;36472;52.170;20.884;2022-10-16T07:39:18;100791.03;;;15.02;88.70
21276;BME280;36472;52.170;20.884;2022-10-16T07:41:47;100812.81;;;15.28;88.54
21276;BME280;36472;52.170;20.884;2022-10-16T07:44:16;100801.09;;;15.65;84.70
21276;BME280;36472;52.170;20.884;2022-10-16T07:46:45;100803.75;;;15.65;84.80
21276;BME280;36472;52.170;20.884;2022-10-16T07:49:15;100792.31;;;15.87;86.09
21276;BME280;36472;52.170;20.884;2022-10-16T07:51:44;100798.78;;;15.94;82.82
21276;BME280;36472;52.170;20.884;2022-10-16T07:54:12;100789.44;;;16.11;83.24
21276;BME280;36472;52.170;20.884;2022-10-16T07:56:41;100784.63;;;16.37;81.74
21276;BME280;36472;52.170;20.884;2022-10-16T07:59:10;100793.69;;;16.56;80.85
21276;BME280;36472;52.170;20.884;2022-10-16T08:01:39;100790.06;;;16.57;79.92
21276;BME280;36472;52.170;20.884;2022-10-16T08:04:09;100799.06;;;16.87;79.29
21276;BME280;36472;52.170;20.884;2022-10-16T08:06:41;100802.63;;;16.97;78.86
21276;BME280;36472;52.170;20.884;2022-10-16T08:09:09;100813.31;;;17.16;78.09
21276;BME280;36472;52.170;20.884;2022-10-16T08:11:38;100812.81;;;17.23;76.97
21276;BME280;36472;52.170;20.884;2022-10-16T08:14:07;100813.75;;;17.52;76.00
21276;BME280;36472;52.170;20.884;2022-10-16T08:16:36;100814.00;;;17.90;75.61
21276;BME280;36472;52.170;20.884;2022-10-16T08:19:04;100825.13;;;17.74;75.24
21276;BME280;36472;52.170;20.884;2022-10-16T08:21:33;100824.34;;;17.83;76.06
21276;BME280;36472;52.170;20.884;2022-10-16T08:24:03;100819.41;;;17.79;74.90
21276;BME280;36472;52.170;20.884;2022-10-16T08:26:32;100822.97;;;18.08;74.21
21276;BME280;36472;52.170;20.884;2022-10-16T08:29:00;100825.78;;;18.17;73.87
21276;BME280;36472;52.170;20.884;2022-10-16T08:31:29;100833.75;;;19.32;68.22
21276;BME280;36472;52.170;20.884;2022-10-16T08:33:58;100841.31;;;18.90;71.64
21276;BME280;36472;52.170;20.884;2022-10-16T08:36:27;100840.25;;;19.20;70.57
21276;BME280;36472;52.170;20.884;2022-10-16T08:38:55;100846.91;;;18.96;72.41
21276;BME280;36472;52.170;20.884;2022-10-16T08:42:11;100844.41;;;18.65;71.79
21276;BME280;36472;52.170;20.884;2022-10-16T08:45:19;100848.50;;;18.40;73.14
21276;BME280;36472;52.170;20.884;2022-10-16T08:48:02;100848.06;;;18.55;71.73
21276;BME280;36472;52.170;20.884;2022-10-16T08:50:36;100848.31;;;18.71;70.40
21276;BME280;36472;52.170;20.884;2022-10-16T08:53:13;100847.19;;;18.74;72.16
21276;BME280;36472;52.170;20.884;2022-10-16T08:55:46;100851.94;;;18.80;71.48
21276;BME280;36472;52.170;20.884;2022-10-16T08:58:21;100852.22;;;18.77;71.65
21276;BME280;36472;52.170;20.884;2022-10-16T09:00:55;100845.38;;;18.84;71.31
21276;BME280;36472;52.170;20.884;2022-10-16T09:03:40;100853.78;;;18.69;71.18
21276;BME280;36472;52.170;20.884;2022-10-16T09:06:29;100859.38;;;18.96;70.47
21276;BME280;36472;52.170;20.884;2022-10-16T09:09:22;100862.59;;;18.99;70.09
21276;BME280;36472;52.170;20.884;2022-10-16T09:12:02;100867.00;;;19.28;70.49
21276;BME280;36472;52.170;20.884;2022-10-16T09:14:50;100854.13;;;19.89;68.32
21276;BME280;36472;52.170;20.884;2022-10-16T09:17:35;100858.19;;;20.11;68.32
21276;BME280;36472;52.170;20.884;2022-10-16T09:20:25;100845.38;;;20.68;65.45
21276;BME280;36472;52.170;20.884;2022-10-16T09:23:12;100840.56;;;20.36;64.70
21276;BME280;36472;52.170;20.884;2022-10-16T09:25:46;100845.31;;;20.60;64.46
21276;BME280;36472;52.170;20.884;2022-10-16T09:28:17;100844.41;;;20.69;64.77
21276;BME280;36472;52.170;20.884;2022-10-16T09:30:48;100846.47;;;20.40;65.10
21276;BME280;36472;52.170;20.884;2022-10-16T09:33:22;100849.72;;;20.87;64.88
21276;BME280;36472;52.170;20.884;2022-10-16T09:35:55;100839.34;;;20.84;63.84
21276;BME280;36472;52.170;20.884;2022-10-16T09:38:28;100845.34;;;21.13;61.64
21276;BME280;36472;52.170;20.884;2022-10-16T09:41:00;100803.75;;;20.40;64.15
21276;BME280;36472;52.170;20.884;2022-10-16T09:43:36;100844.47;;;20.78;65.50
21276;BME280;36472;52.170;20.884;2022-10-16T09:46:23;100846.44;;;21.02;63.35
21276;BME280;36472;52.170;20.884;2022-10-16T09:48:56;100842.69;;;20.86;64.87
21276;BME280;36472;52.170;20.884;2022-10-16T09:51:28;100849.22;;;20.92;63.02
21276;BME280;36472;52.170;20.884;2022-10-16T09:54:00;100849.59;;;20.35;64.70
21276;BME280;36472;52.170;20.884;2022-10-16T09:56:31;100838.38;;;20.93;65.52
21276;BME280;36472;52.170;20.884;2022-10-16T09:59:08;100834.09;;;20.39;64.78
21276;BME280;36472;52.170;20.884;2022-10-16T10:01:45;100839.28;;;20.40;64.27
21276;BME280;36472;52.170;20.884;2022-10-16T10:04:14;100826.22;;;20.99;62.66
21276;BME280;36472;52.170;20.884;2022-10-16T10:06:46;100846.44;;;21.54;60.59
21276;BME280;36472;52.170;20.884;2022-10-16T10:09:19;100849.03;;;20.49;62.84
21276;BME280;36472;52.170;20.884;2022-10-16T10:11:52;100852.56;;;20.68;65.90
21276;BME280;36472;52.170;20.884;2022-10-16T10:14:30;100858.19;;;20.65;65.61
21276;BME280;36472;52.170;20.884;2022-10-16T10:17:15;100850.31;;;20.81;63.14
21276;BME280;36472;52.170;20.884;2022-10-16T10:19:51;100841.88;;;19.96;64.83
21276;BME280;36472;52.170;20.884;2022-10-16T10:22:31;100845.75;;;19.84;66.85
21276;BME280;36472;52.170;20.884;2022-10-16T10:25:19;100844.75;;;20.21;65.22
21276;BME280;36472;52.170;20.884;2022-10-16T10:28:09;100835.09;;;21.00;63.97
21276;BME280;36472;52.170;20.884;2022-10-16T10:30:52;100841.56;;;20.71;62.82
21276;BME280;36472;52.170;20.884;2022-10-16T10:33:36;100840.88;;;21.21;62.79
21276;BME280;36472;52.170;20.884;2022-10-16T10:36:29;100839.88;;;21.22;62.60
21276;BME280;36472;52.170;20.884;2022-10-16T10:39:02;100845.63;;;21.36;62.80
21276;BME280;36472;52.170;20.884;2022-10-16T10:42:16;100847.34;;;20.84;64.02
21276;BME280;36472;52.170;20.884;2022-10-16T10:45:07;100838.16;;;20.87;64.83
21276;BME280;36472;52.170;20.884;2022-10-16T10:47:49;100843.72;;;21.20;63.76
21276;BME280;36472;52.170;20.884;2022-10-16T10:50:31;100844.81;;;21.09;63.00
21276;BME280;36472;52.170;20.884;2022-10-16T10:53:20;100844.41;;;20.51;65.44
21276;BME280;36472;52.170;20.884;2022-10-16T10:55:59;100834.47;;;20.44;65.38
21276;BME280;36472;52.170;20.884;2022-10-16T10:58:50;100831.72;;;20.53;65.33
21276;BME280;36472;52.170;20.884;2022-10-16T11:01:33;100837.75;;;20.55;66.19
21276;BME280;36472;52.170;20.884;2022-10-16T11:04:48;100831.63;;;20.81;65.49
21276;BME280;36472;52.170;20.884;2022-10-16T11:07:26;100821.25;;;20.78;64.71
21276;BME280;36472;52.170;20.884;2022-10-16T11:10:02;100831.78;;;20.80;64.92
21276;BME280;36472;52.170;20.884;2022-10-16T11:12:39;100830.88;;;20.97;62.41
21276;BME280;36472;52.170;20.884;2022-10-16T11:15:17;100825.81;;;21.12;63.34
21276;BME280;36472;52.170;20.884;2022-10-16T11:17:53;100821.78;;;20.82;64.38
21276;BME280;36472;52.170;20.884;2022-10-16T11:20:28;100831.66;;;20.63;66.68
21276;BME280;36472;52.170;20.884;2022-10-16T11:23:08;100823.22;;;20.14;65.04
21276;BME280;36472;52.170;20.884;2022-10-16T11:25:39;100819.53;;;20.33;66.36
21276;BME280;36472;52.170;20.884;2022-10-16T11:28:13;100826.91;;;21.01;65.35
21276;BME280;36472;52.170;20.884;2022-10-16T11:30:48;100841.78;;;20.60;66.33
21276;BME280;36472;52.170;20.884;2022-10-16T11:33:32;100834.94;;;20.57;65.53
21276;BME280;36472;52.170;20.884;2022-10-16T11:36:12;100846.69;;;20.64;67.46
21276;BME280;36472;52.170;20.884;2022-10-16T11:38:52;100843.72;;;20.67;66.81
21276;BME280;36472;52.170;20.884;2022-10-16T11:41:29;100845.00;;;20.63;65.60
21276;BME280;36472;52.170;20.884;2022-10-16T11:44:19;100833.13;;;20.84;65.67
21276;BME280;36472;52.170;20.884;2022-10-16T11:46:58;100824.97;;;20.85;64.65
21276;BME280;36472;52.170;20.884;2022-10-16T11:49:55;100833.38;;;20.54;65.98
21276;BME280;36472;52.170;20.884;2022-10-16T11:52:35;100820.81;;;20.65;66.12
21276;BME280;36472;52.170;20.884;2022-10-16T11:55:16;100816.56;;;20.72;65.13
21276;BME280;36472;52.170;20.884;2022-10-16T11:57:49;100806.63;;;20.64;65.97
21276;BME280;36472;52.170;20.884;2022-10-16T12:00:23;100813.91;;;20.80;65.79
21276;BME280;36472;52.170;20.884;2022-10-16T12:03:00;100827.63;;;20.85;65.05
21276;BME280;36472;52.170;20.884;2022-10-16T12:05:56;100831.47;;;20.83;63.91
21276;BME280;36472;52.170;20.884;2022-10-16T12:08:27;100830.88;;;21.23;63.43
21276;BME280;36472;52.170;20.884;2022-10-16T12:11:09;100835.38;;;21.57;63.19
21276;BME280;36472;52.170;20.884;2022-10-16T12:13:41;100827.16;;;21.16;63.10
21276;BME280;36472;52.170;20.884;2022-10-16T12:16:22;100830.72;;;20.99;64.42
21276;BME280;36472;52.170;20.884;2022-10-16T12:19:14;100834.78;;;21.03;62.82
21276;BME280;36472;52.170;20.884;2022-10-16T12:21:45;100838.88;;;21.50;61.95
21276;BME280;36472;52.170;20.884;2022-10-16T12:24:29;100845.78;;;21.00;65.49
21276;BME280;36472;52.170;20.884;2022-10-16T12:27:00;100840.06;;;20.95;64.17
21276;BME280;36472;52.170;20.884;2022-10-16T12:29:36;100828.22;;;20.35;64.73
21276;BME280;36472;52.170;20.884;2022-10-16T12:32:27;100847.53;;;20.47;66.84
21276;BME280;36472;52.170;20.884;2022-10-16T12:35:21;100835.38;;;20.52;66.62
21276;BME280;36472;52.170;20.884;2022-10-16T12:37:52;100839.00;;;21.14;65.76
21276;BME280;36472;52.170;20.884;2022-10-16T12:40:29;100843.09;;;21.00;66.02
21276;BME280;36472;52.170;20.884;2022-10-16T12:43:13;100845.69;;;21.44;64.46
21276;BME280;36472;52.170;20.884;2022-10-16T12:46:02;100841.59;;;21.32;62.97
21276;BME280;36472;52.170;20.884;2022-10-16T12:48:32;100837.16;;;21.14;64.72
21276;BME280;36472;52.170;20.884;2022-10-16T12:51:25;100839.84;;;21.14;63.54
21276;BME280;36472;52.170;20.884;2022-10-16T12:54:01;100852.31;;;20.61;67.18
21276;BME280;36472;52.170;20.884;2022-10-16T12:56:42;100860.41;;;20.69;68.01
21276;BME280;36472;52.170;20.884;2022-10-16T12:59:33;100853.97;;;20.80;68.45
21276;BME280;36472;52.170;20.884;2022-10-16T13:02:36;100854.06;;;20.52;68.34
21276;BME280;36472;52.170;20.884;2022-10-16T13:05:33;100846.28;;;20.05;69.73
21276;BME280;36472;52.170;20.884;2022-10-16T13:08:30;100843.63;;;20.05;70.52
21276;BME280;36472;52.170;20.884;2022-10-16T13:11:14;100845.47;;;20.23;70.37
21276;BME280;36472;52.170;20.884;2022-10-16T13:14:18;100850.16;;;19.93;71.16
21276;BME280;36472;52.170;20.884;2022-10-16T13:17:01;100855.19;;;19.96;72.13